Terminal Aerodrome Forecast
Issued by NWS

Home | Current Version | Previous Version | Text Only | Print | Product List | Glossary On
Versions: 1 2 3 4 5 6 7 8 9 10 11 12 13
000
FTUS45 KREV 182300
TAFTRK
TAF
KTRK 182320Z 1900/1924 25010KT P6SM VCSH SCT050 BKN070
     FM190300 VRB03KT P6SM SCT060
     FM191000 00000KT P6SM BCFG SKC
     FM191500 VRB04KT P6SM SCT100
     FM192000 24010G17KT P6SM SCT100
      AMD NOT SKED 1902/1912=

USA.gov is the U.S. government's official web portal to all federal, state and local government web resources and services.